Forside
METAR-TAF:

METAR-TAF

Lufthavne :

Joliet Regional Airport

Joliet, Illinois, USA

Breddekreds: 41-31-05N, længdekreds: 088-10-31W, højde: 177 m

Aktuelle vejr

Denne rapport blev lavet for 11 minutter siden, kl. 12:15 UTC
Vind 4 kt fra sydøst
Temperatur 2°C
Fugtighed 93%
Tryk 1024 hPa
Sigt: 8.0 km
Spredte skyer i en højde af 600 ft
Brudte skyer i en højde af 1800 ft
Overskyet i en højde af 4900 ft
regn

METAR: KJOT 241215Z AUTO 13004KT 5SM RA SCT006 BKN018 OVC049 02/01 A3024 RMK AO2 P0001 T00150010

Tid: 06:26 (12:26 UTC)


TAF: fraværende

Vejrobservationer og prognoser fra mere end 4000 lufthavne (METAR og TAF).

De gule og røde prikker repræsenterer de meteorologiske stationer.

Flyt musen over at se navnet på stationen.

Så klik over at se vejr observationer og prognoser.

At skifte det kort: Klik på de grønne knapper med et sort kors for at zoome ind; på den grønne knap med en bindestreg for at zoome ud; eller på de grønne pile for tilstødende kort.


METAR-TAF: